createdAt,value
2019-03-12T00:01:49.140Z,12.88
2019-03-12T00:04:38.416Z,16.25
2019-03-12T00:07:27.250Z,12.15
2019-03-12T00:10:16.761Z,16.90
2019-03-12T00:13:05.835Z,13.72
2019-03-12T00:15:54.964Z,15.78
2019-03-12T00:18:43.927Z,11.28
2019-03-12T00:21:33.005Z,12.15
2019-03-12T00:24:22.304Z,11.22
2019-03-12T00:27:11.544Z,15.70
2019-03-12T00:30:00.512Z,11.45
2019-03-12T00:32:49.882Z,16.45
2019-03-12T00:35:38.548Z,10.48
2019-03-12T00:38:27.918Z,19.25
2019-03-12T00:41:19.970Z,13.48
2019-03-12T00:44:08.090Z,10.98
2019-03-12T00:46:57.203Z,21.50
2019-03-12T00:49:45.911Z,13.83
2019-03-12T00:52:35.433Z,17.32
2019-03-12T00:55:24.466Z,13.90
2019-03-12T00:58:13.328Z,13.03
2019-03-12T01:01:02.372Z,12.20
2019-03-12T01:03:51.805Z,11.22
2019-03-12T01:06:41.610Z,19.07
2019-03-12T01:09:30.390Z,17.07
2019-03-12T01:12:19.466Z,11.90
2019-03-12T01:15:11.801Z,14.00
2019-03-12T01:18:00.960Z,21.93
2019-03-12T01:20:49.747Z,19.23
2019-03-12T01:23:39.373Z,11.20
2019-03-12T01:26:29.067Z,12.50
2019-03-12T01:29:18.360Z,33.85
2019-03-12T01:32:07.709Z,21.85
2019-03-12T01:34:57.077Z,18.05
2019-03-12T01:37:46.787Z,17.57
2019-03-12T01:40:35.527Z,15.50
2019-03-12T01:43:25.194Z,15.95
2019-03-12T01:46:13.951Z,21.52
2019-03-12T01:49:03.315Z,13.30
2019-03-12T01:51:51.995Z,10.70
2019-03-12T01:54:41.229Z,14.73
2019-03-12T01:57:29.787Z,13.13
2019-03-12T02:00:21.030Z,14.63
2019-03-12T02:03:10.263Z,13.45
2019-03-12T02:06:00.071Z,15.23
2019-03-12T02:08:50.034Z,14.45
2019-03-12T02:11:39.327Z,12.50
2019-03-12T02:14:29.354Z,19.20
2019-03-12T02:17:18.582Z,17.95
2019-03-12T02:20:14.735Z,12.82
2019-03-12T02:23:03.979Z,12.93
2019-03-12T02:25:52.494Z,12.43
2019-03-12T02:28:42.316Z,12.70
2019-03-12T02:31:31.460Z,17.40
2019-03-12T02:34:23.362Z,16.97
2019-03-12T02:37:12.852Z,16.65
2019-03-12T02:40:01.957Z,17.67
2019-03-12T02:42:51.200Z,13.28
2019-03-12T02:45:40.289Z,20.35
2019-03-12T02:48:29.538Z,18.85
2019-03-12T02:51:18.830Z,13.70
2019-03-12T02:54:07.660Z,8.45
2019-03-12T02:56:57.158Z,13.18
2019-03-12T02:59:46.174Z,16.50
2019-03-12T03:02:35.606Z,10.30
2019-03-12T03:05:24.890Z,12.18
2019-03-12T03:08:15.567Z,14.45
2019-03-12T03:11:04.233Z,9.10
2019-03-12T03:13:53.499Z,10.85
2019-03-12T03:16:42.703Z,12.18
2019-03-12T03:19:31.417Z,9.28
2019-03-12T03:22:20.649Z,10.03
2019-03-12T03:25:10.785Z,13.40
2019-03-12T03:28:00.137Z,14.07
2019-03-12T03:30:49.490Z,12.18
2019-03-12T03:33:39.186Z,10.68
2019-03-12T03:36:28.464Z,13.60
2019-03-12T03:39:17.611Z,18.52
2019-03-12T03:42:07.414Z,10.58
2019-03-12T03:44:56.728Z,16.70
2019-03-12T03:47:46.364Z,17.27
2019-03-12T03:50:35.700Z,17.65
2019-03-12T03:53:25.387Z,14.35
2019-03-12T03:56:14.463Z,14.87
2019-03-12T03:59:03.445Z,15.30
2019-03-12T04:01:52.203Z,21.27
2019-03-12T04:04:41.478Z,13.05
2019-03-12T04:07:30.511Z,12.60
2019-03-12T04:10:19.704Z,22.82
2019-03-12T04:13:08.731Z,27.15
2019-03-12T04:15:58.242Z,25.55
2019-03-12T04:18:47.830Z,22.58
2019-03-12T04:21:36.978Z,15.50
2019-03-12T04:24:26.533Z,16.55
2019-03-12T04:27:15.940Z,27.45
2019-03-12T04:30:15.134Z,16.93
2019-03-12T04:33:04.799Z,16.30
2019-03-12T04:35:53.987Z,17.45
2019-03-12T04:38:43.195Z,27.00
2019-03-12T04:41:32.520Z,18.07
2019-03-12T04:44:22.213Z,25.52
2019-03-12T04:47:10.845Z,16.30
2019-03-12T04:50:00.243Z,33.67
2019-03-12T04:52:49.346Z,20.52
2019-03-12T04:55:38.663Z,23.00
2019-03-12T04:58:27.940Z,24.47
2019-03-12T05:01:17.401Z,22.82
2019-03-12T05:04:07.117Z,18.98
2019-03-12T05:06:56.619Z,22.90
2019-03-12T05:09:45.680Z,34.75
2019-03-12T05:12:35.295Z,29.32
2019-03-12T05:15:23.788Z,16.17
2019-03-12T05:18:12.619Z,21.77
2019-03-12T05:21:01.023Z,23.05
2019-03-12T05:23:50.021Z,16.00
2019-03-12T05:26:39.358Z,28.05
2019-03-12T05:29:28.868Z,28.30
2019-03-12T05:32:18.243Z,21.25
2019-03-12T05:35:07.723Z,18.52
2019-03-12T05:37:57.092Z,32.45
2019-03-12T05:40:46.176Z,31.75
2019-03-12T05:43:35.085Z,28.70
2019-03-12T05:46:24.229Z,22.77
2019-03-12T05:49:13.255Z,35.95
2019-03-12T05:52:02.317Z,32.78
2019-03-12T05:54:51.525Z,29.55
2019-03-12T05:57:40.373Z,32.78
2019-03-12T06:00:29.501Z,33.92
2019-03-12T06:03:18.447Z,31.15
2019-03-12T06:06:08.145Z,41.75
2019-03-12T06:08:57.342Z,39.75
2019-03-12T06:11:46.480Z,33.50
2019-03-12T06:14:35.541Z,33.45
2019-03-12T06:17:25.253Z,32.03
2019-03-12T06:20:16.448Z,32.50
2019-03-12T06:23:05.604Z,34.80
2019-03-12T06:25:55.002Z,31.70
2019-03-12T06:28:44.346Z,42.35
2019-03-12T06:31:34.728Z,32.85
2019-03-12T06:34:25.552Z,36.75
2019-03-12T06:37:28.649Z,26.75
2019-03-12T06:40:19.215Z,29.60
2019-03-12T06:43:15.881Z,28.02
2019-03-12T06:46:11.175Z,24.75
2019-03-12T06:49:07.446Z,27.30
2019-03-12T06:51:58.322Z,25.60
2019-03-12T06:54:48.704Z,26.80
2019-03-12T06:57:46.488Z,36.20
2019-03-12T07:00:46.112Z,19.48
2019-03-12T07:03:36.801Z,19.75
2019-03-12T07:06:30.170Z,28.45
2019-03-12T07:09:37.022Z,19.92
2019-03-12T07:12:29.706Z,18.42
2019-03-12T07:15:28.804Z,23.60
2019-03-12T07:18:17.667Z,11.38
2019-03-12T07:21:14.273Z,17.80
2019-03-12T07:24:21.210Z,23.62
2019-03-12T07:27:28.968Z,19.62
2019-03-12T07:30:19.195Z,14.18
2019-03-12T07:33:09.657Z,21.75
2019-03-12T07:36:02.564Z,16.02
2019-03-12T07:38:56.285Z,17.35
2019-03-12T07:41:52.284Z,13.78
2019-03-12T07:44:58.297Z,15.55
2019-03-12T07:47:55.372Z,13.55
2019-03-12T07:50:59.574Z,18.62
2019-03-12T07:54:05.955Z,17.67
2019-03-12T07:57:13.073Z,16.10
2019-03-12T08:00:10.149Z,15.23
2019-03-12T08:03:06.523Z,19.02
2019-03-12T08:06:06.833Z,11.80
2019-03-12T08:09:13.742Z,17.90
2019-03-12T08:12:10.087Z,11.48
2019-03-12T08:15:22.332Z,9.70
2019-03-12T08:18:09.737Z,11.70
2019-03-12T08:21:03.581Z,9.43
2019-03-12T08:23:54.943Z,10.82
2019-03-12T08:26:48.634Z,7.42
2019-03-12T08:29:39.736Z,14.10
2019-03-12T08:32:30.589Z,11.65
2019-03-12T11:26:15.609Z,13.53
2019-03-12T11:29:04.599Z,14.43
2019-03-12T11:31:53.659Z,16.70
2019-03-12T11:34:43.274Z,15.47
2019-03-12T11:37:32.005Z,13.20
2019-03-12T11:40:25.397Z,15.03
2019-03-12T11:43:15.392Z,12.90
2019-03-12T11:46:05.165Z,12.20
2019-03-12T11:48:55.450Z,14.40
2019-03-12T11:54:32.669Z,14.10
2019-03-12T23:07:15.443Z,3.40
2019-03-12T23:10:12.499Z,3.75
2019-03-12T23:13:01.833Z,5.35
2019-03-12T23:15:50.761Z,5.62
2019-03-12T23:18:40.104Z,6.15
2019-03-12T23:21:28.976Z,3.65
2019-03-12T23:24:18.778Z,4.80
2019-03-12T23:27:07.648Z,3.45
2019-03-12T23:29:56.188Z,6.22
2019-03-12T23:32:45.326Z,4.58
2019-03-12T23:35:34.317Z,5.33
2019-03-12T23:38:23.489Z,2.30
2019-03-12T23:41:13.159Z,2.65
2019-03-12T23:44:02.098Z,4.70
2019-03-12T23:46:51.598Z,2.30
2019-03-12T23:49:40.238Z,5.75
2019-03-12T23:52:29.521Z,2.75
2019-03-12T23:55:19.782Z,6.65
2019-03-12T23:58:08.580Z,5.50
